Terminal Aerodrome Forecast
Issued by NWS Billings, MT

Home | Current Version | Previous Version | Graphics & Text | Print | Product List | Glossary On
Versions: 1 2 3 4 5 6 7 8 9 10 11 12 13 14 15 16 17 18 19 20 21 22 23 24
000
FTUS45 KBYZ 310520
TAFMLS
TAF
KMLS 310520Z 3106/0106 04006KT P6SM SKC
     FM310900 VRB06KT P6SM FEW090
     FM311600 15008KT P6SM FEW110
     FM312200 VRB06KT P6SM FEW090=

USA.gov is the U.S. government's official web portal to all federal, state and local government web resources and services.